Wetterdaten: Samstag, 13.03.2010
Datum Zeit Temp. A. Feuchte A. Luftdruck Regen Wind Richtung Richtung Sonnenschein UV Solar Windben
13.03.2010 00:00 3,6 C 77 % 1018,9 hPa 0,0 mm 6,4 km/h (2 Bft) W 270 0 min 0 UV-I 0 W/m 19,3 km/h (3 Bft)
13.03.2010 00:10 3,6 C 77 % 1019,0 hPa 0,0 mm 6,4 km/h (2 Bft) W 270 0 min 0 UV-I 0 W/m 24,1 km/h (4 Bft)
13.03.2010 00:20 3,5 C 77 % 1018,9 hPa 0,0 mm 6,4 km/h (2 Bft) W 270 0 min 0 UV-I 0 W/m 19,3 km/h (3 Bft)
13.03.2010 00:30 3,4 C 78 % 1018,8 hPa 0,0 mm 4,8 km/h (1 Bft) W 270 0 min 0 UV-I 0 W/m 16,1 km/h (3 Bft)
13.03.2010 00:40 3,4 C 78 % 1018,9 hPa 0,0 mm 4,8 km/h (1 Bft) W 270 0 min 0 UV-I 0 W/m 16,1 km/h (3 Bft)
13.03.2010 00:50 3,3 C 78 % 1018,9 hPa 0,0 mm 4,8 km/h (1 Bft) W 270 0 min 0 UV-I 0 W/m 14,5 km/h (3 Bft)
13.03.2010 01:00 3,3 C 79 % 1019,0 hPa 0,0 mm 4,8 km/h (1 Bft) W-SW 247 0 min 0 UV-I 0 W/m 16,1 km/h (3 Bft)
13.03.2010 01:10 3,3 C 79 % 1019,0 hPa 0,0 mm 4,8 km/h (1 Bft) W 270 0 min 0 UV-I 0 W/m 17,7 km/h (3 Bft)
13.03.2010 01:20 3,2 C 80 % 1019,0 hPa 0,0 mm 6,4 km/h (2 Bft) W 270 0 min 0 UV-I 0 W/m 16,1 km/h (3 Bft)
13.03.2010 01:30 3,2 C 81 % 1018,9 hPa 0,0 mm 4,8 km/h (1 Bft) W 270 0 min 0 UV-I 0 W/m 16,1 km/h (3 Bft)
13.03.2010 01:40 3,2 C 81 % 1019,1 hPa 0,0 mm 4,8 km/h (1 Bft) W 270 0 min 0 UV-I 0 W/m 16,1 km/h (3 Bft)
13.03.2010 01:50 3,1 C 82 % 1019,1 hPa 0,0 mm 4,8 km/h (1 Bft) W 270 0 min 0 UV-I 0 W/m 17,7 km/h (3 Bft)
13.03.2010 02:00 3,1 C 82 % 1018,9 hPa 0,0 mm 6,4 km/h (2 Bft) W 270 0 min 0 UV-I 0 W/m 17,7 km/h (3 Bft)
13.03.2010 02:10 3,1 C 83 % 1019,0 hPa 0,0 mm 4,8 km/h (1 Bft) W 270 0 min 0 UV-I 0 W/m 16,1 km/h (3 Bft)
13.03.2010 02:20 3,1 C 83 % 1019,0 hPa 0,0 mm 6,4 km/h (2 Bft) W 270 0 min 0 UV-I 0 W/m 12,9 km/h (3 Bft)
13.03.2010 02:30 3,1 C 84 % 1019,1 hPa 0,0 mm 4,8 km/h (1 Bft) W 270 0 min 0 UV-I 0 W/m 16,1 km/h (3 Bft)
13.03.2010 02:40 3,0 C 84 % 1019,2 hPa 0,0 mm 3,2 km/h (1 Bft) W 270 0 min 0 UV-I 0 W/m 16,1 km/h (3 Bft)
13.03.2010 02:50 3,0 C 84 % 1019,2 hPa 0,0 mm 6,4 km/h (2 Bft) W 270 0 min 0 UV-I 0 W/m 17,7 km/h (3 Bft)
13.03.2010 03:00 3,0 C 84 % 1019,2 hPa 0,0 mm 4,8 km/h (1 Bft) W 270 0 min 0 UV-I 0 W/m 16,1 km/h (3 Bft)
13.03.2010 03:10 3,0 C 85 % 1019,2 hPa 0,0 mm 6,4 km/h (2 Bft) W 270 0 min 0 UV-I 0 W/m 19,3 km/h (3 Bft)
13.03.2010 03:20 3,0 C 85 % 1019,2 hPa 0,0 mm 4,8 km/h (1 Bft) W 270 0 min 0 UV-I 0 W/m 19,3 km/h (3 Bft)
13.03.2010 03:30 2,9 C 85 % 1019,2 hPa 0,0 mm 4,8 km/h (1 Bft) W 270 0 min 0 UV-I 0 W/m 16,1 km/h (3 Bft)
13.03.2010 03:40 2,9 C 85 % 1019,2 hPa 0,0 mm 4,8 km/h (1 Bft) W 270 0 min 0 UV-I 0 W/m 16,1 km/h (3 Bft)
13.03.2010 03:50 2,9 C 86 % 1019,2 hPa 0,0 mm 4,8 km/h (1 Bft) W 270 0 min 0 UV-I 0 W/m 14,5 km/h (3 Bft)
13.03.2010 04:00 2,8 C 86 % 1019,3 hPa 0,0 mm 3,2 km/h (1 Bft) W 270 0 min 0 UV-I 0 W/m 11,3 km/h (2 Bft)
13.03.2010 04:10 2,8 C 86 % 1019,3 hPa 0,0 mm 3,2 km/h (1 Bft) W 270 0 min 0 UV-I 0 W/m 11,3 km/h (2 Bft)
13.03.2010 04:20 2,8 C 86 % 1019,3 hPa 0,0 mm 6,4 km/h (2 Bft) W 270 0 min 0 UV-I 0 W/m 12,9 km/h (3 Bft)
13.03.2010 04:30 2,8 C 85 % 1019,3 hPa 0,0 mm 6,4 km/h (2 Bft) W 270 0 min 0 UV-I 0 W/m 19,3 km/h (3 Bft)
13.03.2010 04:40 2,8 C 84 % 1019,4 hPa 0,0 mm 8,0 km/h (2 Bft) W 270 0 min 0 UV-I 0 W/m 19,3 km/h (3 Bft)
13.03.2010 04:50 2,8 C 84 % 1019,5 hPa 0,0 mm 4,8 km/h (1 Bft) W 270 0 min 0 UV-I 0 W/m 17,7 km/h (3 Bft)
13.03.2010 05:00 2,8 C 84 % 1019,5 hPa 0,0 mm 4,8 km/h (1 Bft) W 270 0 min 0 UV-I 0 W/m 16,1 km/h (3 Bft)
13.03.2010 05:10 2,8 C 84 % 1019,6 hPa 0,0 mm 6,4 km/h (2 Bft) W-SW 247 0 min 0 UV-I 0 W/m 17,7 km/h (3 Bft)
13.03.2010 05:20 2,8 C 84 % 1019,7 hPa 0,0 mm 6,4 km/h (2 Bft) W 270 0 min 0 UV-I 0 W/m 17,7 km/h (3 Bft)
13.03.2010 05:30 2,8 C 84 % 1019,8 hPa 0,0 mm 4,8 km/h (1 Bft) W 270 0 min 0 UV-I 0 W/m 17,7 km/h (3 Bft)
13.03.2010 05:40 2,7 C 84 % 1019,8 hPa 0,0 mm 8,0 km/h (2 Bft) W 270 0 min 0 UV-I 0 W/m 19,3 km/h (3 Bft)
13.03.2010 05:50 2,7 C 84 % 1019,9 hPa 0,0 mm 8,0 km/h (2 Bft) W 270 0 min 0 UV-I 0 W/m 19,3 km/h (3 Bft)
13.03.2010 06:00 2,6 C 84 % 1019,8 hPa 0,0 mm 4,8 km/h (1 Bft) W 270 0 min 0 UV-I 0 W/m 22,5 km/h (4 Bft)
13.03.2010 06:10 2,5 C 84 % 1019,9 hPa 0,0 mm 4,8 km/h (1 Bft) W 270 0 min 0 UV-I 0 W/m 17,7 km/h (3 Bft)
13.03.2010 06:20 2,4 C 85 % 1019,9 hPa 0,0 mm 6,4 km/h (2 Bft) W 270 0 min 0 UV-I 0 W/m 12,9 km/h (3 Bft)
13.03.2010 06:30 2,4 C 85 % 1020,1 hPa 0,0 mm 6,4 km/h (2 Bft) W 270 0 min 0 UV-I 0 W/m 16,1 km/h (3 Bft)
13.03.2010 06:40 2,4 C 85 % 1020,1 hPa 0,0 mm 4,8 km/h (1 Bft) W 270 0 min 0 UV-I 0 W/m 14,5 km/h (3 Bft)
13.03.2010 06:50 2,3 C 85 % 1020,2 hPa 0,0 mm 4,8 km/h (1 Bft) W 270 0 min 0 UV-I 0 W/m 16,1 km/h (3 Bft)
13.03.2010 07:00 2,3 C 85 % 1020,3 hPa 0,0 mm 4,8 km/h (1 Bft) W 270 0 min 0 UV-I 5 W/m 14,5 km/h (3 Bft)
13.03.2010 07:10 2,3 C 85 % 1020,4 hPa 0,0 mm 6,4 km/h (2 Bft) W 270 0 min 0 UV-I 7 W/m 16,1 km/h (3 Bft)
13.03.2010 07:20 2,3 C 85 % 1020,3 hPa 0,0 mm 6,4 km/h (2 Bft) W 270 0 min 0 UV-I 14 W/m 16,1 km/h (3 Bft)
13.03.2010 07:30 2,4 C 85 % 1020,3 hPa 0,0 mm 6,4 km/h (2 Bft) W 270 0 min 0 UV-I 25 W/m 17,7 km/h (3 Bft)
13.03.2010 07:40 2,4 C 85 % 1020,5 hPa 0,0 mm 6,4 km/h (2 Bft) W 270 0 min 0 UV-I 30 W/m 14,5 km/h (3 Bft)
13.03.2010 07:50 2,4 C 85 % 1020,5 hPa 0,0 mm 4,8 km/h (1 Bft) W 270 0 min 0 UV-I 35 W/m 17,7 km/h (3 Bft)
13.03.2010 08:00 2,6 C 85 % 1020,7 hPa 0,0 mm 5,8 km/h (2 Bft) W-SW 242 0 min 0 UV-I 21 W/m 14,5 km/h (3 Bft)
13.03.2010 08:10 2,6 C 85 % 1020,7 hPa 0,0 mm 4,8 km/h (1 Bft) W 270 0 min 0 UV-I 32 W/m 12,9 km/h (3 Bft)
13.03.2010 08:20 2,6 C 85 % 1020,8 hPa 0,0 mm 6,4 km/h (2 Bft) W-SW 247 0 min 0 UV-I 42 W/m 17,7 km/h (3 Bft)
13.03.2010 08:30 2,7 C 85 % 1020,8 hPa 0,0 mm 6,4 km/h (2 Bft) W 270 0 min 0 UV-I 60 W/m 17,7 km/h (3 Bft)
13.03.2010 08:40 2,7 C 85 % 1020,8 hPa 0,0 mm 8,0 km/h (2 Bft) W-SW 247 0 min 0 UV-I 79 W/m 22,5 km/h (4 Bft)
13.03.2010 08:50 2,8 C 85 % 1020,8 hPa 0,0 mm 6,4 km/h (2 Bft) W 270 0 min 0 UV-I 109 W/m 22,5 km/h (4 Bft)
13.03.2010 09:00 2,9 C 84 % 1020,7 hPa 0,0 mm 8,0 km/h (2 Bft) W 270 0 min 1 UV-I 105 W/m 19,3 km/h (3 Bft)
13.03.2010 09:10 3,0 C 84 % 1020,8 hPa 0,0 mm 6,4 km/h (2 Bft) W 270 0 min 1 UV-I 91 W/m 17,7 km/h (3 Bft)
13.03.2010 09:20 3,1 C 84 % 1020,8 hPa 0,0 mm 8,0 km/h (2 Bft) W 270 0 min 1 UV-I 90 W/m 20,9 km/h (4 Bft)
13.03.2010 09:30 3,1 C 84 % 1020,7 hPa 0,0 mm 8,0 km/h (2 Bft) W 270 0 min 0 UV-I 79 W/m 19,3 km/h (3 Bft)
13.03.2010 09:40 3,0 C 85 % 1020,9 hPa 0,0 mm 6,4 km/h (2 Bft) W 270 0 min 0 UV-I 83 W/m 16,1 km/h (3 Bft)
13.03.2010 09:50 2,9 C 86 % 1020,9 hPa 0,0 mm 8,0 km/h (2 Bft) W 270 0 min 1 UV-I 90 W/m 22,5 km/h (4 Bft)
13.03.2010 10:00 2,9 C 87 % 1020,9 hPa 0,0 mm 8,0 km/h (2 Bft) W 270 0 min 1 UV-I 100 W/m 22,5 km/h (4 Bft)
13.03.2010 10:10 2,9 C 88 % 1020,9 hPa 0,0 mm 8,0 km/h (2 Bft) W-SW 247 0 min 1 UV-I 107 W/m 20,9 km/h (4 Bft)
13.03.2010 10:20 3,0 C 88 % 1021,1 hPa 0,0 mm 8,0 km/h (2 Bft) W 270 0 min 1 UV-I 84 W/m 25,7 km/h (4 Bft)
13.03.2010 10:30 2,9 C 88 % 1021,1 hPa 0,0 mm 8,0 km/h (2 Bft) W 270 0 min 0 UV-I 69 W/m 20,9 km/h (4 Bft)
13.03.2010 10:40 2,9 C 89 % 1021,1 hPa 0,0 mm 8,0 km/h (2 Bft) W 270 0 min 1 UV-I 116 W/m 25,7 km/h (4 Bft)
13.03.2010 10:50 3,1 C 89 % 1021,1 hPa 0,0 mm 8,0 km/h (2 Bft) W 270 0 min 1 UV-I 79 W/m 19,3 km/h (3 Bft)
13.03.2010 11:00 3,2 C 89 % 1021,2 hPa 0,0 mm 8,0 km/h (2 Bft) W 270 0 min 1 UV-I 156 W/m 20,9 km/h (4 Bft)
13.03.2010 11:10 3,4 C 89 % 1021,4 hPa 0,0 mm 8,0 km/h (2 Bft) W 270 0 min 1 UV-I 135 W/m 22,5 km/h (4 Bft)
13.03.2010 11:20 3,6 C 88 % 1021,5 hPa 0,0 mm 8,0 km/h (2 Bft) W 270 0 min 1 UV-I 127 W/m 20,9 km/h (4 Bft)
13.03.2010 11:30 3,7 C 88 % 1021,4 hPa 0,0 mm 6,4 km/h (2 Bft) W-NW 292 0 min 1 UV-I 169 W/m 16,1 km/h (3 Bft)
13.03.2010 11:40 3,9 C 88 % 1021,5 hPa 0,0 mm 6,4 km/h (2 Bft) W 270 0 min 1 UV-I 160 W/m 16,1 km/h (3 Bft)
13.03.2010 11:50 4,1 C 88 % 1021,6 hPa 0,0 mm 8,0 km/h (2 Bft) W 270 0 min 1 UV-I 153 W/m 25,7 km/h (4 Bft)
13.03.2010 12:00 4,1 C 87 % 1021,7 hPa 0,0 mm 6,4 km/h (2 Bft) W 270 0 min 1 UV-I 169 W/m 19,3 km/h (3 Bft)
13.03.2010 12:10 4,3 C 86 % 1021,7 hPa 0,0 mm 8,0 km/h (2 Bft) W 270 0 min 1 UV-I 169 W/m 20,9 km/h (4 Bft)
13.03.2010 12:20 4,6 C 85 % 1021,7 hPa 0,0 mm 6,4 km/h (2 Bft) W 270 0 min 1 UV-I 171 W/m 19,3 km/h (3 Bft)
13.03.2010 12:30 4,7 C 85 % 1021,7 hPa 0,0 mm 6,4 km/h (2 Bft) W 270 0 min 1 UV-I 223 W/m 17,7 km/h (3 Bft)
13.03.2010 12:40 4,8 C 85 % 1021,6 hPa 0,0 mm 6,4 km/h (2 Bft) W 270 0 min 1 UV-I 218 W/m 16,1 km/h (3 Bft)
13.03.2010 12:50 4,9 C 84 % 1021,7 hPa 0,0 mm 8,0 km/h (2 Bft) W 270 0 min 1 UV-I 195 W/m 24,1 km/h (4 Bft)
13.03.2010 13:00 5,1 C 82 % 1021,7 hPa 0,0 mm 8,0 km/h (2 Bft) W-NW 292 0 min 1 UV-I 230 W/m 22,5 km/h (4 Bft)
13.03.2010 13:10 5,2 C 82 % 1021,6 hPa 0,0 mm 6,4 km/h (2 Bft) W-NW 292 0 min 1 UV-I 186 W/m 20,9 km/h (4 Bft)
13.03.2010 13:20 5,3 C 81 % 1021,5 hPa 0,0 mm 8,0 km/h (2 Bft) W 270 0 min 1 UV-I 165 W/m 16,1 km/h (3 Bft)
13.03.2010 13:30 5,3 C 81 % 1021,5 hPa 0,0 mm 6,4 km/h (2 Bft) W 270 0 min 1 UV-I 83 W/m 24,1 km/h (4 Bft)
13.03.2010 13:40 5,3 C 80 % 1021,6 hPa 0,0 mm 6,4 km/h (2 Bft) W-NW 292 0 min 1 UV-I 100 W/m 22,5 km/h (4 Bft)
13.03.2010 13:50 5,4 C 80 % 1021,5 hPa 0,0 mm 8,0 km/h (2 Bft) W 270 0 min 1 UV-I 172 W/m 19,3 km/h (3 Bft)
13.03.2010 14:00 5,6 C 78 % 1021,5 hPa 0,0 mm 8,0 km/h (2 Bft) W-NW 292 0 min 1 UV-I 186 W/m 20,9 km/h (4 Bft)
13.03.2010 14:10 5,8 C 77 % 1021,4 hPa 0,0 mm 8,0 km/h (2 Bft) W 270 0 min 1 UV-I 192 W/m 24,1 km/h (4 Bft)
13.03.2010 14:20 5,8 C 77 % 1021,4 hPa 0,0 mm 8,0 km/h (2 Bft) W-SW 247 0 min 1 UV-I 128 W/m 19,3 km/h (3 Bft)
13.03.2010 14:30 5,7 C 78 % 1021,5 hPa 0,0 mm 8,0 km/h (2 Bft) W 270 0 min 1 UV-I 95 W/m 22,5 km/h (4 Bft)
13.03.2010 14:40 5,6 C 78 % 1021,4 hPa 0,0 mm 8,0 km/h (2 Bft) W 270 0 min 1 UV-I 148 W/m 22,5 km/h (4 Bft)
13.03.2010 14:50 5,7 C 78 % 1021,4 hPa 0,0 mm 6,4 km/h (2 Bft) W 270 0 min 1 UV-I 97 W/m 17,7 km/h (3 Bft)
13.03.2010 15:00 5,8 C 78 % 1021,4 hPa 0,0 mm 9,7 km/h (2 Bft) W 270 0 min 1 UV-I 107 W/m 24,1 km/h (4 Bft)
13.03.2010 15:10 5,8 C 78 % 1021,3 hPa 0,0 mm 8,0 km/h (2 Bft) W 270 0 min 1 UV-I 127 W/m 22,5 km/h (4 Bft)
13.03.2010 15:20 5,8 C 78 % 1021,3 hPa 0,0 mm 9,7 km/h (2 Bft) W-SW 247 0 min 1 UV-I 130 W/m 25,7 km/h (4 Bft)
13.03.2010 15:30 5,8 C 78 % 1021,1 hPa 0,0 mm 8,0 km/h (2 Bft) W 270 0 min 1 UV-I 132 W/m 19,3 km/h (3 Bft)
13.03.2010 15:40 5,9 C 77 % 1021,1 hPa 0,0 mm 9,7 km/h (2 Bft) W 270 0 min 1 UV-I 132 W/m 22,5 km/h (4 Bft)
13.03.2010 15:50 5,9 C 77 % 1021,1 hPa 0,0 mm 4,8 km/h (1 Bft) W-SW 247 0 min 1 UV-I 97 W/m 16,1 km/h (3 Bft)
13.03.2010 16:00 6,0 C 77 % 1021,0 hPa 0,0 mm 6,4 km/h (2 Bft) W 270 0 min 1 UV-I 100 W/m 17,7 km/h (3 Bft)
13.03.2010 16:10 6,0 C 76 % 1021,0 hPa 0,0 mm 9,7 km/h (2 Bft) W 270 0 min 0 UV-I 65 W/m 22,5 km/h (4 Bft)
13.03.2010 16:20 5,9 C 77 % 1020,9 hPa 0,0 mm 8,0 km/h (2 Bft) W 270 0 min 0 UV-I 28 W/m 20,9 km/h (4 Bft)
13.03.2010 16:30 5,8 C 78 % 1021,0 hPa 0,0 mm 8,0 km/h (2 Bft) W 270 0 min 0 UV-I 28 W/m 19,3 km/h (3 Bft)
13.03.2010 16:40 5,8 C 79 % 1021,1 hPa 0,0 mm 9,7 km/h (2 Bft) W 270 0 min 0 UV-I 16 W/m 20,9 km/h (4 Bft)
13.03.2010 16:50 5,7 C 79 % 1021,0 hPa 0,0 mm 6,4 km/h (2 Bft) W 270 0 min 0 UV-I 35 W/m 19,3 km/h (3 Bft)
13.03.2010 17:00 5,7 C 80 % 1021,0 hPa 0,0 mm 8,0 km/h (2 Bft) W 270 0 min 0 UV-I 35 W/m 22,5 km/h (4 Bft)
13.03.2010 17:10 5,7 C 80 % 1021,0 hPa 0,0 mm 8,0 km/h (2 Bft) W 270 0 min 0 UV-I 23 W/m 20,9 km/h (4 Bft)
13.03.2010 17:20 5,7 C 79 % 1021,0 hPa 0,0 mm 8,0 km/h (2 Bft) W 270 0 min 0 UV-I 19 W/m 20,9 km/h (4 Bft)
13.03.2010 17:30 5,7 C 79 % 1021,0 hPa 0,0 mm 9,7 km/h (2 Bft) W 270 0 min 0 UV-I 18 W/m 25,7 km/h (4 Bft)
13.03.2010 17:40 5,7 C 79 % 1021,0 hPa 0,0 mm 8,0 km/h (2 Bft) W 270 0 min 0 UV-I 14 W/m 24,1 km/h (4 Bft)
13.03.2010 17:50 5,6 C 79 % 1021,1 hPa 0,0 mm 9,7 km/h (2 Bft) W 270 0 min 0 UV-I 12 W/m 29,0 km/h (5 Bft)
13.03.2010 18:00 5,6 C 78 % 1021,1 hPa 0,0 mm 9,7 km/h (2 Bft) W 270 0 min 0 UV-I 9 W/m 29,0 km/h (5 Bft)
13.03.2010 18:10 5,6 C 79 % 1021,3 hPa 0,0 mm 9,7 km/h (2 Bft) W 270 0 min 0 UV-I 5 W/m 27,4 km/h (4 Bft)
13.03.2010 18:20 5,5 C 79 % 1021,2 hPa 0,0 mm 9,7 km/h (2 Bft) W 270 0 min 0 UV-I 0 W/m 24,1 km/h (4 Bft)
13.03.2010 18:30 5,4 C 80 % 1021,3 hPa 0,0 mm 11,3 km/h (2 Bft) W 270 0 min 0 UV-I 0 W/m 29,0 km/h (5 Bft)
13.03.2010 18:40 5,3 C 81 % 1021,1 hPa 0,0 mm 9,7 km/h (2 Bft) W 270 0 min 0 UV-I 0 W/m 24,1 km/h (4 Bft)
13.03.2010 18:50 5,2 C 81 % 1021,3 hPa 0,0 mm 9,7 km/h (2 Bft) W 270 0 min 0 UV-I 0 W/m 24,1 km/h (4 Bft)
13.03.2010 19:00 5,2 C 81 % 1021,3 hPa 0,0 mm 8,0 km/h (2 Bft) W 270 0 min 0 UV-I 0 W/m 22,5 km/h (4 Bft)
13.03.2010 19:10 5,2 C 81 % 1021,3 hPa 0,0 mm 6,4 km/h (2 Bft) W 270 0 min 0 UV-I 0 W/m 17,7 km/h (3 Bft)
13.03.2010 19:20 5,1 C 82 % 1021,5 hPa 0,0 mm 6,4 km/h (2 Bft) W 270 0 min 0 UV-I 0 W/m 20,9 km/h (4 Bft)
13.03.2010 19:30 5,0 C 82 % 1021,4 hPa 0,0 mm 8,0 km/h (2 Bft) W-SW 247 0 min 0 UV-I 0 W/m 20,9 km/h (4 Bft)
13.03.2010 19:40 4,9 C 82 % 1021,5 hPa 0,0 mm 8,0 km/h (2 Bft) W 270 0 min 0 UV-I 0 W/m 22,5 km/h (4 Bft)
13.03.2010 19:50 4,9 C 83 % 1021,6 hPa 0,3 mm 8,0 km/h (2 Bft) W-SW 247 0 min 0 UV-I 0 W/m 20,9 km/h (4 Bft)
13.03.2010 20:00 4,8 C 84 % 1021,5 hPa 0,0 mm 8,0 km/h (2 Bft) W 270 0 min 0 UV-I 0 W/m 24,1 km/h (4 Bft)
13.03.2010 20:10 4,8 C 85 % 1021,6 hPa 0,0 mm 9,7 km/h (2 Bft) W 270 0 min 0 UV-I 0 W/m 29,0 km/h (5 Bft)
13.03.2010 20:20 4,7 C 85 % 1021,6 hPa 0,0 mm 9,7 km/h (2 Bft) W 270 0 min 0 UV-I 0 W/m 30,6 km/h (5 Bft)
13.03.2010 20:30 4,6 C 86 % 1021,5 hPa 0,0 mm 6,4 km/h (2 Bft) W-SW 247 0 min 0 UV-I 0 W/m 19,3 km/h (3 Bft)
13.03.2010 20:40 4,5 C 87 % 1019,3 hPa 0,0 mm 8,0 km/h (2 Bft) W 270 0 min 0 UV-I 0 W/m 24,1 km/h (4 Bft)
13.03.2010 20:50 4,4 C 87 % 1019,7 hPa 0,0 mm 8,0 km/h (2 Bft) W-SW 247 0 min 0 UV-I 0 W/m 22,5 km/h (4 Bft)
13.03.2010 21:00 4,4 C 87 % 1021,5 hPa 0,0 mm 9,7 km/h (2 Bft) W 270 0 min 0 UV-I 0 W/m 27,4 km/h (4 Bft)
13.03.2010 21:10 4,3 C 88 % 1016,2 hPa 0,0 mm 6,4 km/h (2 Bft) W-SW 247 0 min 0 UV-I 0 W/m 19,3 km/h (3 Bft)
13.03.2010 21:20 4,3 C 88 % 1017,9 hPa 0,0 mm 8,0 km/h (2 Bft) W 270 0 min 0 UV-I 0 W/m 19,3 km/h (3 Bft)
13.03.2010 21:30 4,3 C 88 % 1020,2 hPa 0,0 mm 11,3 km/h (2 Bft) W 270 0 min 0 UV-I 0 W/m 22,5 km/h (4 Bft)
13.03.2010 21:40 4,2 C 88 % 1014,4 hPa 0,0 mm 8,0 km/h (2 Bft) W 270 0 min 0 UV-I 0 W/m 25,7 km/h (4 Bft)
13.03.2010 21:50 4,2 C 88 % 1018,0 hPa 0,0 mm 9,7 km/h (2 Bft) W 270 0 min 0 UV-I 0 W/m 25,7 km/h (4 Bft)
13.03.2010 22:00 4,2 C 88 % 1017,5 hPa 0,0 mm 9,7 km/h (2 Bft) W 270 0 min 0 UV-I 0 W/m 24,1 km/h (4 Bft)
13.03.2010 22:10 4,1 C 88 % 1015,8 hPa 0,0 mm 9,7 km/h (2 Bft) W 270 0 min 0 UV-I 0 W/m 25,7 km/h (4 Bft)
13.03.2010 22:20 4,1 C 88 % 1016,2 hPa 0,3 mm 8,0 km/h (2 Bft) W-SW 247 0 min 0 UV-I 0 W/m 22,5 km/h (4 Bft)
13.03.2010 22:30 4,1 C 88 % 1017,0 hPa 0,0 mm 6,4 km/h (2 Bft) W 270 0 min 0 UV-I 0 W/m 22,5 km/h (4 Bft)
13.03.2010 22:40 4,1 C 88 % 1015,1 hPa 0,0 mm 8,0 km/h (2 Bft) W 270 0 min 0 UV-I 0 W/m 24,1 km/h (4 Bft)
13.03.2010 22:50 4,1 C 88 % 1015,6 hPa 0,0 mm 9,7 km/h (2 Bft) W-SW 247 0 min 0 UV-I 0 W/m 25,7 km/h (4 Bft)
13.03.2010 23:00 4,1 C 88 % 1016,8 hPa 0,0 mm 9,7 km/h (2 Bft) W 270 0 min 0 UV-I 0 W/m 20,9 km/h (4 Bft)
13.03.2010 23:10 4,1 C 88 % 1017,7 hPa 0,0 mm 11,3 km/h (2 Bft) W 270 0 min 0 UV-I 0 W/m 27,4 km/h (4 Bft)
13.03.2010 23:20 4,1 C 88 % 1019,4 hPa 0,0 mm 9,7 km/h (2 Bft) W-SW 247 0 min 0 UV-I 0 W/m 29,0 km/h (5 Bft)
13.03.2010 23:30 3,9 C 88 % 1019,4 hPa 0,0 mm 9,7 km/h (2 Bft) W 270 0 min 0 UV-I 0 W/m 25,7 km/h (4 Bft)
13.03.2010 23:40 3,9 C 88 % 1019,4 hPa 0,0 mm 9,7 km/h (2 Bft) W 270 0 min 0 UV-I 0 W/m 24,1 km/h (4 Bft)
13.03.2010 23:50 3,8 C 88 % 1015,4 hPa 0,0 mm 9,7 km/h (2 Bft) W 270 0 min 0 UV-I 0 W/m 30,6 km/h (5 Bft)
_ Min-Zeit 06:40 16:10 21:40 - 02:40 - - - - - 04:00
Minimum _ 2,3 C 76 % 1014,4 hPa - 3,2 km/h (1 Bft) - - - - - 11,3 km/h (2 Bft)
_ Max-Zeit 16:00 10:40 12:00 19:50 18:30 - - 00:00 13:00 13:00 20:20
Maximum _ 6,1 C 89 % 1021,7 hPa 0,3 mm 11,3 km/h
W (2 Bft)
- - 0 min 1 UV-I 230 W/m 30,6 km/h
W (5 Bft)
Durchschnitt _ 4,0 C 83 % 1020,1 hPa #0,5 mm 7,2 km/h (2 Bft) W - #0 min. 1 UV-I 96 W/m 20,3 km/h (4 Bft)